createdAt,value
2017-07-22T00:07:47.949Z,19.1
2017-07-22T00:18:03.524Z,19.1
2017-07-22T00:28:17.676Z,19
2017-07-22T00:38:31.785Z,18.9
2017-07-22T00:48:45.626Z,18.8
2017-07-22T00:59:01.352Z,18.9
2017-07-22T01:09:16.300Z,19
2017-07-22T01:19:30.600Z,18.9
2017-07-22T01:29:45.676Z,18.8
2017-07-22T01:40:00.799Z,18.6
2017-07-22T01:50:15.447Z,18.6
2017-07-22T02:00:30.363Z,18.7
2017-07-22T02:10:45.154Z,18.9
2017-07-22T02:21:00.773Z,18.9
2017-07-22T02:31:15.373Z,18.7
2017-07-22T02:41:29.400Z,19.2
2017-07-22T02:51:44.080Z,19.7
2017-07-22T03:01:59.058Z,17.6
2017-07-22T03:12:13.925Z,17.4
2017-07-22T03:22:28.508Z,17.3
2017-07-22T03:32:43.350Z,17.2
2017-07-22T03:42:58.674Z,17.4
2017-07-22T03:53:12.476Z,17.3
2017-07-22T04:03:28.109Z,17.4
2017-07-22T04:13:43.657Z,17.4
2017-07-22T04:23:59.208Z,17.4
2017-07-22T04:34:13.313Z,17.6
2017-07-22T04:44:28.734Z,17.5
2017-07-22T04:54:44.025Z,17.5
2017-07-22T05:04:58.863Z,17.6
2017-07-22T05:15:12.599Z,17.6
2017-07-22T05:25:26.579Z,17.6
2017-07-22T05:35:40.232Z,17.5
2017-07-22T05:45:55.066Z,17.7
2017-07-22T05:56:10.487Z,17.8
2017-07-22T06:06:25.682Z,17.9
2017-07-22T06:16:40.578Z,18.1
2017-07-22T06:26:54.711Z,18.3
2017-07-22T06:37:08.905Z,18.6
2017-07-22T06:47:23.146Z,19.3
2017-07-22T06:57:37.608Z,19.9
2017-07-22T07:07:52.318Z,20.4
2017-07-22T07:18:07.802Z,21.8
2017-07-22T07:28:23.345Z,21.8
2017-07-22T07:38:38.239Z,22.3
2017-07-22T07:48:52.650Z,23.4
2017-07-22T07:59:06.781Z,23.7
2017-07-22T08:09:22.175Z,23.9
2017-07-22T08:19:37.335Z,23.2
2017-07-22T08:29:51.459Z,23.3
2017-07-22T08:40:06.389Z,24.7
2017-07-22T08:50:20.365Z,24.4
2017-07-22T09:00:36.305Z,24.9
2017-07-22T09:10:50.723Z,24.5
2017-07-22T09:21:06.322Z,24.4
2017-07-22T09:31:21.668Z,25.6
2017-07-22T09:41:37.174Z,25.4
2017-07-22T09:51:52.429Z,26.6
2017-07-22T10:02:07.490Z,27
2017-07-22T10:12:22.483Z,27.3
2017-07-22T10:22:37.010Z,26.8
2017-07-22T10:32:52.756Z,27.4
2017-07-22T10:43:07.809Z,27.3
2017-07-22T10:53:22.068Z,27.1
2017-07-22T11:03:36.664Z,27.1
2017-07-22T11:13:51.542Z,27.1
2017-07-22T11:24:06.006Z,27
2017-07-22T11:34:21.823Z,27.8
2017-07-22T11:44:37.496Z,27.6
2017-07-22T11:54:52.050Z,27.9
2017-07-22T12:05:06.441Z,27.7
2017-07-22T12:15:21.758Z,28
2017-07-22T12:25:37.088Z,28.1
2017-07-22T12:35:52.981Z,28.5
2017-07-22T12:46:07.718Z,28.6
2017-07-22T12:56:22.057Z,28.9
2017-07-22T13:06:36.610Z,28.3
2017-07-22T13:16:51.809Z,28.3
2017-07-22T13:27:05.797Z,27.4
2017-07-22T13:37:20.181Z,28.2
2017-07-22T13:47:35.143Z,31.2
2017-07-22T13:57:50.218Z,29.5
2017-07-22T14:08:04.852Z,30.3
2017-07-22T14:18:19.332Z,27.4
2017-07-22T14:28:34.546Z,28.3
2017-07-22T14:38:49.142Z,29.2
2017-07-22T14:49:03.501Z,28.2
2017-07-22T14:59:18.217Z,28.4
2017-07-22T15:09:33.631Z,28.4
2017-07-22T15:19:47.947Z,28.2
2017-07-22T15:30:03.743Z,28.5
2017-07-22T15:40:19.598Z,29.1
2017-07-22T15:50:34.811Z,28.7
2017-07-22T16:00:49.890Z,29.8
2017-07-22T16:11:04.559Z,29.5
2017-07-22T16:21:19.738Z,28.9
2017-07-22T16:31:35.250Z,27
2017-07-22T16:41:49.290Z,26.3
2017-07-22T16:52:05.168Z,25.2
2017-07-22T17:02:19.739Z,24.4
2017-07-22T17:12:35.090Z,24.1
2017-07-22T17:22:49.314Z,24.1
2017-07-22T17:33:04.409Z,23.5
2017-07-22T17:43:19.744Z,22.9
2017-07-22T17:53:35.280Z,22.6
2017-07-22T18:03:49.125Z,22.2
2017-07-22T18:14:04.839Z,22.2
2017-07-22T18:24:19.082Z,22.3
2017-07-22T18:34:34.974Z,22.3
2017-07-22T18:44:48.747Z,22.3
2017-07-22T18:55:03.492Z,22.1
2017-07-22T19:05:17.013Z,21.7
2017-07-22T19:15:31.649Z,21.3
2017-07-22T19:25:46.267Z,21.4
2017-07-22T19:36:00.153Z,21.2
2017-07-22T19:46:15.451Z,20.8
2017-07-22T19:56:29.894Z,20.2
2017-07-22T20:06:44.575Z,19.7
2017-07-22T20:16:58.753Z,19.5
2017-07-22T20:27:13.664Z,19.2
2017-07-22T20:37:27.664Z,19
2017-07-22T20:47:42.223Z,18.7
2017-07-22T20:57:56.061Z,18.7
2017-07-22T21:08:10.091Z,18.4
2017-07-22T21:18:24.395Z,18.2
2017-07-22T21:28:39.705Z,18.3
2017-07-22T21:38:55.451Z,18.2
2017-07-22T21:49:11.142Z,18.3
2017-07-22T21:59:26.365Z,18.3
2017-07-22T22:09:40.024Z,18.3
2017-07-22T22:19:55.763Z,18.1
2017-07-22T22:30:10.711Z,18
2017-07-22T22:40:24.589Z,17.8
2017-07-22T22:50:40.062Z,17.8
2017-07-22T23:00:54.923Z,18.1
2017-07-22T23:11:09.773Z,18.3
2017-07-22T23:21:24.496Z,18.7
2017-07-22T23:31:39.088Z,18.7
2017-07-22T23:41:54.838Z,18.5
2017-07-22T23:52:08.911Z,18.2
